sensor_id;sensor_type;location;lat;lon;timestamp;P1;durP1;ratioP1;P2;durP2;ratioP2
53271;SDS011;39160;48.580;7.756;2024-02-26T00:00:01;1.15;;;0.77;;
53271;SDS011;39160;48.580;7.756;2024-02-26T00:04:53;2.30;;;0.85;;
53271;SDS011;39160;48.580;7.756;2024-02-26T00:09:43;0.82;;;0.60;;
53271;SDS011;39160;48.580;7.756;2024-02-26T00:14:34;0.50;;;0.40;;
53271;SDS011;39160;48.580;7.756;2024-02-26T00:19:25;0.30;;;0.30;;
53271;SDS011;39160;48.580;7.756;2024-02-26T00:24:16;0.90;;;0.60;;
53271;SDS011;39160;48.580;7.756;2024-02-26T00:29:06;0.63;;;0.47;;
53271;SDS011;39160;48.580;7.756;2024-02-26T00:33:57;1.13;;;0.52;;
53271;SDS011;39160;48.580;7.756;2024-02-26T00:38:48;1.20;;;0.60;;
53271;SDS011;39160;48.580;7.756;2024-02-26T00:43:40;2.35;;;0.80;;
53271;SDS011;39160;48.580;7.756;2024-02-26T00:48:32;0.98;;;0.73;;
53271;SDS011;39160;48.580;7.756;2024-02-26T00:53:23;2.42;;;0.77;;
53271;SDS011;39160;48.580;7.756;2024-02-26T00:58:15;1.17;;;0.65;;
53271;SDS011;39160;48.580;7.756;2024-02-26T01:03:05;1.02;;;0.80;;
53271;SDS011;39160;48.580;7.756;2024-02-26T01:07:56;1.55;;;0.77;;
53271;SDS011;39160;48.580;7.756;2024-02-26T01:12:47;1.20;;;1.10;;
53271;SDS011;39160;48.580;7.756;2024-02-26T01:17:37;1.52;;;0.80;;
53271;SDS011;39160;48.580;7.756;2024-02-26T01:22:28;1.02;;;0.75;;
53271;SDS011;39160;48.580;7.756;2024-02-26T01:27:19;4.05;;;0.80;;
53271;SDS011;39160;48.580;7.756;2024-02-26T01:32:10;2.03;;;1.02;;
53271;SDS011;39160;48.580;7.756;2024-02-26T01:37:00;1.33;;;1.05;;
53271;SDS011;39160;48.580;7.756;2024-02-26T01:41:51;2.53;;;0.80;;
53271;SDS011;39160;48.580;7.756;2024-02-26T01:46:42;0.38;;;0.30;;
53271;SDS011;39160;48.580;7.756;2024-02-26T01:51:33;0.60;;;0.60;;
53271;SDS011;39160;48.580;7.756;2024-02-26T01:56:24;0.45;;;0.40;;
53271;SDS011;39160;48.580;7.756;2024-02-26T02:01:20;0.43;;;0.20;;
53271;SDS011;39160;48.580;7.756;2024-02-26T02:06:12;0.60;;;0.50;;
53271;SDS011;39160;48.580;7.756;2024-02-26T02:11:03;0.63;;;0.38;;
53271;SDS011;39160;48.580;7.756;2024-02-26T02:15:54;1.73;;;0.65;;
53271;SDS011;39160;48.580;7.756;2024-02-26T02:20:45;0.20;;;0.20;;
53271;SDS011;39160;48.580;7.756;2024-02-26T02:25:35;0.30;;;0.28;;
53271;SDS011;39160;48.580;7.756;2024-02-26T02:30:27;0.80;;;0.32;;
53271;SDS011;39160;48.580;7.756;2024-02-26T02:35:19;0.77;;;0.40;;
53271;SDS011;39160;48.580;7.756;2024-02-26T02:40:10;1.10;;;0.47;;
53271;SDS011;39160;48.580;7.756;2024-02-26T02:45:01;0.45;;;0.40;;
53271;SDS011;39160;48.580;7.756;2024-02-26T02:49:51;0.90;;;0.55;;
53271;SDS011;39160;48.580;7.756;2024-02-26T02:54:42;1.00;;;0.52;;
53271;SDS011;39160;48.580;7.756;2024-02-26T02:59:33;1.40;;;0.60;;
53271;SDS011;39160;48.580;7.756;2024-02-26T03:04:23;1.40;;;0.80;;
53271;SDS011;39160;48.580;7.756;2024-02-26T03:09:14;0.95;;;0.68;;
53271;SDS011;39160;48.580;7.756;2024-02-26T03:14:05;2.30;;;0.52;;
53271;SDS011;39160;48.580;7.756;2024-02-26T03:18:56;0.60;;;0.55;;
53271;SDS011;39160;48.580;7.756;2024-02-26T03:23:47;0.80;;;0.70;;
53271;SDS011;39160;48.580;7.756;2024-02-26T03:28:37;0.63;;;0.50;;
53271;SDS011;39160;48.580;7.756;2024-02-26T03:33:28;1.75;;;0.45;;
53271;SDS011;39160;48.580;7.756;2024-02-26T03:38:18;1.45;;;0.35;;
53271;SDS011;39160;48.580;7.756;2024-02-26T03:43:09;1.23;;;0.50;;
53271;SDS011;39160;48.580;7.756;2024-02-26T03:48:00;0.85;;;0.50;;
53271;SDS011;39160;48.580;7.756;2024-02-26T03:52:50;1.85;;;0.40;;
53271;SDS011;39160;48.580;7.756;2024-02-26T03:57:41;1.08;;;0.35;;
53271;SDS011;39160;48.580;7.756;2024-02-26T04:02:32;0.47;;;0.40;;
53271;SDS011;39160;48.580;7.756;2024-02-26T04:07:22;1.25;;;0.70;;
53271;SDS011;39160;48.580;7.756;2024-02-26T04:12:13;0.40;;;0.40;;
53271;SDS011;39160;48.580;7.756;2024-02-26T04:17:04;0.43;;;0.32;;
53271;SDS011;39160;48.580;7.756;2024-02-26T04:21:55;1.00;;;0.52;;
53271;SDS011;39160;48.580;7.756;2024-02-26T04:26:45;1.17;;;0.70;;
53271;SDS011;39160;48.580;7.756;2024-02-26T04:31:37;0.40;;;0.40;;
53271;SDS011;39160;48.580;7.756;2024-02-26T04:36:28;0.43;;;0.40;;
53271;SDS011;39160;48.580;7.756;2024-02-26T04:41:18;1.00;;;0.63;;
53271;SDS011;39160;48.580;7.756;2024-02-26T04:46:09;0.50;;;0.50;;
53271;SDS011;39160;48.580;7.756;2024-02-26T04:51:00;1.88;;;0.43;;
53271;SDS011;39160;48.580;7.756;2024-02-26T04:55:51;1.20;;;0.70;;
53271;SDS011;39160;48.580;7.756;2024-02-26T05:00:43;1.25;;;0.57;;
53271;SDS011;39160;48.580;7.756;2024-02-26T05:05:34;0.85;;;0.68;;
53271;SDS011;39160;48.580;7.756;2024-02-26T05:10:25;1.58;;;0.40;;
53271;SDS011;39160;48.580;7.756;2024-02-26T05:15:15;1.58;;;0.85;;
53271;SDS011;39160;48.580;7.756;2024-02-26T05:20:08;0.95;;;0.63;;
53271;SDS011;39160;48.580;7.756;2024-02-26T05:24:59;0.65;;;0.60;;
53271;SDS011;39160;48.580;7.756;2024-02-26T05:29:50;1.00;;;0.80;;
53271;SDS011;39160;48.580;7.756;2024-02-26T05:34:41;2.13;;;0.70;;
53271;SDS011;39160;48.580;7.756;2024-02-26T05:39:32;0.73;;;0.40;;
53271;SDS011;39160;48.580;7.756;2024-02-26T05:44:23;1.98;;;1.00;;
53271;SDS011;39160;48.580;7.756;2024-02-26T05:49:16;1.27;;;0.70;;
53271;SDS011;39160;48.580;7.756;2024-02-26T05:54:07;1.63;;;1.08;;
53271;SDS011;39160;48.580;7.756;2024-02-26T05:58:58;2.15;;;1.45;;
53271;SDS011;39160;48.580;7.756;2024-02-26T06:03:48;1.52;;;0.75;;
53271;SDS011;39160;48.580;7.756;2024-02-26T06:08:39;1.65;;;0.80;;
53271;SDS011;39160;48.580;7.756;2024-02-26T06:13:30;1.58;;;1.17;;
53271;SDS011;39160;48.580;7.756;2024-02-26T06:18:21;1.77;;;1.13;;
53271;SDS011;39160;48.580;7.756;2024-02-26T06:23:11;0.90;;;0.77;;
53271;SDS011;39160;48.580;7.756;2024-02-26T06:28:02;1.80;;;0.80;;
53271;SDS011;39160;48.580;7.756;2024-02-26T06:32:53;1.52;;;0.90;;
53271;SDS011;39160;48.580;7.756;2024-02-26T06:37:43;1.65;;;0.90;;
53271;SDS011;39160;48.580;7.756;2024-02-26T06:42:34;1.67;;;0.95;;
53271;SDS011;39160;48.580;7.756;2024-02-26T06:47:25;1.58;;;0.88;;
53271;SDS011;39160;48.580;7.756;2024-02-26T06:52:16;1.40;;;0.90;;
53271;SDS011;39160;48.580;7.756;2024-02-26T06:57:06;1.27;;;0.90;;
53271;SDS011;39160;48.580;7.756;2024-02-26T07:01:57;2.58;;;0.93;;
53271;SDS011;39160;48.580;7.756;2024-02-26T07:06:47;1.23;;;0.85;;
53271;SDS011;39160;48.580;7.756;2024-02-26T07:11:38;0.98;;;0.68;;
53271;SDS011;39160;48.580;7.756;2024-02-26T07:16:31;1.52;;;0.80;;
53271;SDS011;39160;48.580;7.756;2024-02-26T07:21:22;1.70;;;0.98;;
53271;SDS011;39160;48.580;7.756;2024-02-26T07:26:13;0.93;;;0.68;;
53271;SDS011;39160;48.580;7.756;2024-02-26T07:31:03;2.00;;;0.88;;
53271;SDS011;39160;48.580;7.756;2024-02-26T07:35:54;0.73;;;0.70;;
53271;SDS011;39160;48.580;7.756;2024-02-26T07:40:45;1.65;;;1.05;;
53271;SDS011;39160;48.580;7.756;2024-02-26T07:45:35;1.13;;;1.02;;
53271;SDS011;39160;48.580;7.756;2024-02-26T07:50:26;3.60;;;1.10;;
53271;SDS011;39160;48.580;7.756;2024-02-26T07:55:17;1.80;;;1.20;;
53271;SDS011;39160;48.580;7.756;2024-02-26T08:00:08;2.47;;;0.98;;
53271;SDS011;39160;48.580;7.756;2024-02-26T08:04:59;1.17;;;1.00;;
53271;SDS011;39160;48.580;7.756;2024-02-26T08:09:50;1.75;;;1.20;;
53271;SDS011;39160;48.580;7.756;2024-02-26T08:14:40;1.55;;;1.25;;
53271;SDS011;39160;48.580;7.756;2024-02-26T08:19:32;3.08;;;1.15;;
53271;SDS011;39160;48.580;7.756;2024-02-26T08:24:25;2.88;;;1.27;;
53271;SDS011;39160;48.580;7.756;2024-02-26T08:29:16;2.17;;;1.20;;
53271;SDS011;39160;48.580;7.756;2024-02-26T08:34:07;2.40;;;1.20;;
53271;SDS011;39160;48.580;7.756;2024-02-26T08:38:57;1.77;;;1.35;;
53271;SDS011;39160;48.580;7.756;2024-02-26T08:43:48;1.45;;;0.93;;
53271;SDS011;39160;48.580;7.756;2024-02-26T08:48:39;2.53;;;1.42;;
53271;SDS011;39160;48.580;7.756;2024-02-26T08:53:30;3.17;;;1.98;;
53271;SDS011;39160;48.580;7.756;2024-02-26T08:58:21;2.10;;;1.17;;
53271;SDS011;39160;48.580;7.756;2024-02-26T09:03:11;2.38;;;1.35;;
53271;SDS011;39160;48.580;7.756;2024-02-26T09:08:02;2.67;;;1.50;;
53271;SDS011;39160;48.580;7.756;2024-02-26T09:12:53;4.85;;;1.92;;
53271;SDS011;39160;48.580;7.756;2024-02-26T09:17:45;2.35;;;1.20;;
53271;SDS011;39160;48.580;7.756;2024-02-26T09:22:35;1.70;;;1.40;;
53271;SDS011;39160;48.580;7.756;2024-02-26T09:27:28;2.53;;;1.52;;
53271;SDS011;39160;48.580;7.756;2024-02-26T09:32:20;2.70;;;1.48;;
53271;SDS011;39160;48.580;7.756;2024-02-26T09:37:11;5.65;;;1.65;;
53271;SDS011;39160;48.580;7.756;2024-02-26T09:42:03;1.35;;;1.25;;
53271;SDS011;39160;48.580;7.756;2024-02-26T09:46:56;2.85;;;1.52;;
53271;SDS011;39160;48.580;7.756;2024-02-26T09:51:48;1.90;;;1.70;;
53271;SDS011;39160;48.580;7.756;2024-02-26T09:56:40;1.65;;;1.23;;
53271;SDS011;39160;48.580;7.756;2024-02-26T10:01:31;3.72;;;1.98;;
53271;SDS011;39160;48.580;7.756;2024-02-26T10:06:27;2.80;;;1.67;;
53271;SDS011;39160;48.580;7.756;2024-02-26T10:11:18;3.03;;;1.90;;
53271;SDS011;39160;48.580;7.756;2024-02-26T10:16:10;2.78;;;1.85;;
53271;SDS011;39160;48.580;7.756;2024-02-26T10:21:01;2.20;;;1.60;;
53271;SDS011;39160;48.580;7.756;2024-02-26T10:25:55;1.95;;;1.45;;
53271;SDS011;39160;48.580;7.756;2024-02-26T10:30:46;2.25;;;1.38;;
53271;SDS011;39160;48.580;7.756;2024-02-26T10:35:37;2.22;;;1.30;;
53271;SDS011;39160;48.580;7.756;2024-02-26T10:40:30;2.38;;;1.40;;
53271;SDS011;39160;48.580;7.756;2024-02-26T10:45:21;2.80;;;1.50;;
53271;SDS011;39160;48.580;7.756;2024-02-26T10:50:12;5.03;;;1.73;;
53271;SDS011;39160;48.580;7.756;2024-02-26T10:55:05;3.88;;;1.83;;
53271;SDS011;39160;48.580;7.756;2024-02-26T10:59:59;3.03;;;1.45;;
53271;SDS011;39160;48.580;7.756;2024-02-26T11:04:54;3.38;;;1.95;;
53271;SDS011;39160;48.580;7.756;2024-02-26T11:09:45;4.00;;;1.58;;
53271;SDS011;39160;48.580;7.756;2024-02-26T11:14:42;3.60;;;2.42;;
53271;SDS011;39160;48.580;7.756;2024-02-26T11:19:36;2.10;;;1.38;;
53271;SDS011;39160;48.580;7.756;2024-02-26T11:24:29;4.82;;;2.55;;
53271;SDS011;39160;48.580;7.756;2024-02-26T11:29:21;2.95;;;1.60;;
53271;SDS011;39160;48.580;7.756;2024-02-26T11:34:12;2.28;;;1.85;;
53271;SDS011;39160;48.580;7.756;2024-02-26T11:39:04;2.55;;;1.60;;
53271;SDS011;39160;48.580;7.756;2024-02-26T11:44:00;5.18;;;1.80;;
53271;SDS011;39160;48.580;7.756;2024-02-26T11:53:46;2.33;;;1.25;;
53271;SDS011;39160;48.580;7.756;2024-02-26T11:58:40;2.28;;;1.48;;
53271;SDS011;39160;48.580;7.756;2024-02-26T12:03:31;4.05;;;1.65;;
53271;SDS011;39160;48.580;7.756;2024-02-26T12:08:22;1.67;;;1.40;;
53271;SDS011;39160;48.580;7.756;2024-02-26T12:13:14;1.60;;;1.15;;
53271;SDS011;39160;48.580;7.756;2024-02-26T12:18:06;2.20;;;1.48;;
53271;SDS011;39160;48.580;7.756;2024-02-26T12:22:59;2.05;;;1.10;;
53271;SDS011;39160;48.580;7.756;2024-02-26T12:27:51;1.17;;;0.85;;
53271;SDS011;39160;48.580;7.756;2024-02-26T12:32:43;2.60;;;1.00;;
53271;SDS011;39160;48.580;7.756;2024-02-26T12:37:34;1.02;;;0.80;;
53271;SDS011;39160;48.580;7.756;2024-02-26T12:42:27;1.65;;;0.93;;
53271;SDS011;39160;48.580;7.756;2024-02-26T12:47:19;1.00;;;0.60;;
53271;SDS011;39160;48.580;7.756;2024-02-26T12:52:10;1.00;;;0.68;;
53271;SDS011;39160;48.580;7.756;2024-02-26T12:57:01;1.92;;;0.90;;
53271;SDS011;39160;48.580;7.756;2024-02-26T13:01:56;4.53;;;1.08;;
53271;SDS011;39160;48.580;7.756;2024-02-26T13:06:47;1.15;;;0.57;;
53271;SDS011;39160;48.580;7.756;2024-02-26T13:11:39;0.95;;;0.70;;
53271;SDS011;39160;48.580;7.756;2024-02-26T13:16:30;1.70;;;0.90;;
53271;SDS011;39160;48.580;7.756;2024-02-26T13:21:21;1.45;;;0.90;;
53271;SDS011;39160;48.580;7.756;2024-02-26T13:26:14;0.80;;;0.52;;
53271;SDS011;39160;48.580;7.756;2024-02-26T13:31:05;7.25;;;1.08;;
53271;SDS011;39160;48.580;7.756;2024-02-26T13:35:58;0.77;;;0.60;;
53271;SDS011;39160;48.580;7.756;2024-02-26T13:40:50;1.60;;;0.60;;
53271;SDS011;39160;48.580;7.756;2024-02-26T13:45:41;0.98;;;0.50;;
53271;SDS011;39160;48.580;7.756;2024-02-26T13:50:31;1.60;;;0.75;;
53271;SDS011;39160;48.580;7.756;2024-02-26T13:55:22;2.63;;;0.70;;
53271;SDS011;39160;48.580;7.756;2024-02-26T14:00:16;1.83;;;0.55;;
53271;SDS011;39160;48.580;7.756;2024-02-26T14:05:07;0.65;;;0.63;;
53271;SDS011;39160;48.580;7.756;2024-02-26T14:09:58;1.17;;;0.68;;
53271;SDS011;39160;48.580;7.756;2024-02-26T14:14:48;1.30;;;0.68;;
53271;SDS011;39160;48.580;7.756;2024-02-26T14:19:39;2.50;;;0.77;;
53271;SDS011;39160;48.580;7.756;2024-02-26T14:24:33;1.13;;;0.60;;
53271;SDS011;39160;48.580;7.756;2024-02-26T14:29:24;0.85;;;0.63;;
53271;SDS011;39160;48.580;7.756;2024-02-26T14:34:15;0.70;;;0.52;;
53271;SDS011;39160;48.580;7.756;2024-02-26T14:39:07;1.83;;;0.57;;
53271;SDS011;39160;48.580;7.756;2024-02-26T14:44:02;1.23;;;0.50;;
53271;SDS011;39160;48.580;7.756;2024-02-26T14:48:53;0.80;;;0.70;;
53271;SDS011;39160;48.580;7.756;2024-02-26T14:53:43;0.63;;;0.47;;
53271;SDS011;39160;48.580;7.756;2024-02-26T14:58:34;1.65;;;0.88;;
53271;SDS011;39160;48.580;7.756;2024-02-26T15:03:24;1.60;;;0.70;;
53271;SDS011;39160;48.580;7.756;2024-02-26T15:08:15;0.68;;;0.40;;
53271;SDS011;39160;48.580;7.756;2024-02-26T15:13:06;1.45;;;0.68;;
53271;SDS011;39160;48.580;7.756;2024-02-26T15:17:57;2.58;;;0.90;;
53271;SDS011;39160;48.580;7.756;2024-02-26T15:22:48;0.70;;;0.70;;
53271;SDS011;39160;48.580;7.756;2024-02-26T15:27:39;0.85;;;0.55;;
53271;SDS011;39160;48.580;7.756;2024-02-26T15:32:29;3.03;;;1.48;;
53271;SDS011;39160;48.580;7.756;2024-02-26T15:37:20;1.60;;;0.77;;
53271;SDS011;39160;48.580;7.756;2024-02-26T15:42:11;0.52;;;0.40;;
53271;SDS011;39160;48.580;7.756;2024-02-26T15:47:02;2.30;;;1.10;;
53271;SDS011;39160;48.580;7.756;2024-02-26T15:51:53;1.05;;;0.52;;
53271;SDS011;39160;48.580;7.756;2024-02-26T15:56:43;1.25;;;1.15;;
53271;SDS011;39160;48.580;7.756;2024-02-26T16:01:34;1.10;;;0.80;;
53271;SDS011;39160;48.580;7.756;2024-02-26T16:11:32;1.00;;;0.60;;
53271;SDS011;39160;48.580;7.756;2024-02-26T16:16:23;1.65;;;0.88;;
53271;SDS011;39160;48.580;7.756;2024-02-26T16:21:18;0.63;;;0.40;;
53271;SDS011;39160;48.580;7.756;2024-02-26T16:26:09;1.75;;;0.60;;
53271;SDS011;39160;48.580;7.756;2024-02-26T16:30:59;2.25;;;0.70;;
53271;SDS011;39160;48.580;7.756;2024-02-26T16:35:50;0.55;;;0.40;;
53271;SDS011;39160;48.580;7.756;2024-02-26T16:40:41;4.32;;;0.50;;
53271;SDS011;39160;48.580;7.756;2024-02-26T16:45:32;0.82;;;0.73;;
53271;SDS011;39160;48.580;7.756;2024-02-26T16:50:22;1.20;;;0.60;;
53271;SDS011;39160;48.580;7.756;2024-02-26T16:55:13;1.70;;;0.60;;
53271;SDS011;39160;48.580;7.756;2024-02-26T17:00:04;1.73;;;0.47;;
53271;SDS011;39160;48.580;7.756;2024-02-26T17:04:55;1.15;;;0.60;;
53271;SDS011;39160;48.580;7.756;2024-02-26T17:09:46;2.28;;;0.75;;
53271;SDS011;39160;48.580;7.756;2024-02-26T17:14:36;1.67;;;0.50;;
53271;SDS011;39160;48.580;7.756;2024-02-26T17:19:27;2.22;;;0.45;;
53271;SDS011;39160;48.580;7.756;2024-02-26T17:24:18;1.42;;;0.70;;
53271;SDS011;39160;48.580;7.756;2024-02-26T17:29:09;1.92;;;0.80;;
53271;SDS011;39160;48.580;7.756;2024-02-26T17:34:00;1.15;;;0.75;;
53271;SDS011;39160;48.580;7.756;2024-02-26T17:38:50;0.82;;;0.60;;
53271;SDS011;39160;48.580;7.756;2024-02-26T17:43:41;0.80;;;0.70;;
53271;SDS011;39160;48.580;7.756;2024-02-26T17:48:32;1.00;;;0.77;;
53271;SDS011;39160;48.580;7.756;2024-02-26T17:53:23;2.50;;;1.05;;
53271;SDS011;39160;48.580;7.756;2024-02-26T17:58:14;1.30;;;0.68;;
53271;SDS011;39160;48.580;7.756;2024-02-26T18:03:05;2.05;;;1.00;;
53271;SDS011;39160;48.580;7.756;2024-02-26T18:07:55;2.03;;;1.02;;
53271;SDS011;39160;48.580;7.756;2024-02-26T18:12:46;3.22;;;1.30;;
53271;SDS011;39160;48.580;7.756;2024-02-26T18:17:39;1.73;;;1.00;;
53271;SDS011;39160;48.580;7.756;2024-02-26T18:22:33;2.50;;;1.30;;
53271;SDS011;39160;48.580;7.756;2024-02-26T18:27:25;2.20;;;1.20;;
53271;SDS011;39160;48.580;7.756;2024-02-26T18:32:16;1.90;;;1.08;;
53271;SDS011;39160;48.580;7.756;2024-02-26T18:37:07;1.88;;;1.02;;
53271;SDS011;39160;48.580;7.756;2024-02-26T18:41:58;3.15;;;1.38;;
53271;SDS011;39160;48.580;7.756;2024-02-26T18:46:49;3.03;;;1.17;;
53271;SDS011;39160;48.580;7.756;2024-02-26T18:51:40;2.22;;;1.10;;
53271;SDS011;39160;48.580;7.756;2024-02-26T18:56:31;1.67;;;1.20;;
53271;SDS011;39160;48.580;7.756;2024-02-26T19:01:22;3.22;;;1.48;;
53271;SDS011;39160;48.580;7.756;2024-02-26T19:06:12;1.02;;;0.82;;
53271;SDS011;39160;48.580;7.756;2024-02-26T19:11:06;2.00;;;1.08;;
53271;SDS011;39160;48.580;7.756;2024-02-26T19:15:58;1.23;;;0.97;;
53271;SDS011;39160;48.580;7.756;2024-02-26T19:20:49;1.55;;;0.70;;
53271;SDS011;39160;48.580;7.756;2024-02-26T19:25:39;1.50;;;0.80;;
53271;SDS011;39160;48.580;7.756;2024-02-26T19:30:32;3.25;;;1.33;;
53271;SDS011;39160;48.580;7.756;2024-02-26T19:35:23;2.20;;;1.15;;
53271;SDS011;39160;48.580;7.756;2024-02-26T19:40:13;1.35;;;1.17;;
53271;SDS011;39160;48.580;7.756;2024-02-26T19:45:06;1.88;;;1.50;;
53271;SDS011;39160;48.580;7.756;2024-02-26T19:49:58;2.40;;;1.67;;
53271;SDS011;39160;48.580;7.756;2024-02-26T19:54:49;2.05;;;1.08;;
53271;SDS011;39160;48.580;7.756;2024-02-26T19:59:40;2.72;;;1.75;;
53271;SDS011;39160;48.580;7.756;2024-02-26T20:04:31;3.60;;;1.70;;
53271;SDS011;39160;48.580;7.756;2024-02-26T20:09:21;2.75;;;2.10;;
53271;SDS011;39160;48.580;7.756;2024-02-26T20:14:16;3.22;;;1.73;;
53271;SDS011;39160;48.580;7.756;2024-02-26T20:19:07;2.33;;;2.00;;
53271;SDS011;39160;48.580;7.756;2024-02-26T20:24:03;2.85;;;1.80;;
53271;SDS011;39160;48.580;7.756;2024-02-26T20:28:54;2.75;;;1.88;;
53271;SDS011;39160;48.580;7.756;2024-02-26T20:33:44;2.35;;;1.83;;
53271;SDS011;39160;48.580;7.756;2024-02-26T20:38:36;3.00;;;2.33;;
53271;SDS011;39160;48.580;7.756;2024-02-26T20:43:26;4.57;;;2.00;;
53271;SDS011;39160;48.580;7.756;2024-02-26T20:48:17;5.70;;;3.33;;
53271;SDS011;39160;48.580;7.756;2024-02-26T20:53:08;3.20;;;2.30;;
53271;SDS011;39160;48.580;7.756;2024-02-26T20:58:00;4.97;;;3.30;;
53271;SDS011;39160;48.580;7.756;2024-02-26T21:02:50;5.65;;;2.78;;
53271;SDS011;39160;48.580;7.756;2024-02-26T21:07:41;4.00;;;2.55;;
53271;SDS011;39160;48.580;7.756;2024-02-26T21:12:32;4.43;;;2.40;;
53271;SDS011;39160;48.580;7.756;2024-02-26T21:17:22;4.50;;;2.20;;
53271;SDS011;39160;48.580;7.756;2024-02-26T21:22:13;4.60;;;2.65;;
53271;SDS011;39160;48.580;7.756;2024-02-26T21:27:04;3.28;;;2.20;;
53271;SDS011;39160;48.580;7.756;2024-02-26T21:31:55;4.70;;;2.90;;
53271;SDS011;39160;48.580;7.756;2024-02-26T21:36:46;4.07;;;2.67;;
53271;SDS011;39160;48.580;7.756;2024-02-26T21:41:37;4.30;;;2.40;;
53271;SDS011;39160;48.580;7.756;2024-02-26T21:46:28;4.45;;;3.00;;
53271;SDS011;39160;48.580;7.756;2024-02-26T21:51:19;5.25;;;2.72;;
53271;SDS011;39160;48.580;7.756;2024-02-26T21:56:10;4.85;;;3.00;;
53271;SDS011;39160;48.580;7.756;2024-02-26T22:01:00;5.45;;;2.55;;
53271;SDS011;39160;48.580;7.756;2024-02-26T22:05:51;4.25;;;2.20;;
53271;SDS011;39160;48.580;7.756;2024-02-26T22:10:43;4.72;;;2.35;;
53271;SDS011;39160;48.580;7.756;2024-02-26T22:15:35;3.45;;;1.98;;
53271;SDS011;39160;48.580;7.756;2024-02-26T22:20:26;4.57;;;2.97;;
53271;SDS011;39160;48.580;7.756;2024-02-26T22:25:17;4.53;;;2.60;;
53271;SDS011;39160;48.580;7.756;2024-02-26T22:30:08;4.50;;;2.22;;
53271;SDS011;39160;48.580;7.756;2024-02-26T22:34:59;5.35;;;2.70;;
53271;SDS011;39160;48.580;7.756;2024-02-26T22:39:50;4.80;;;2.63;;
53271;SDS011;39160;48.580;7.756;2024-02-26T22:44:40;4.43;;;2.70;;
53271;SDS011;39160;48.580;7.756;2024-02-26T22:49:31;4.43;;;2.80;;
53271;SDS011;39160;48.580;7.756;2024-02-26T22:54:27;4.25;;;2.13;;
53271;SDS011;39160;48.580;7.756;2024-02-26T22:59:17;5.47;;;2.38;;
53271;SDS011;39160;48.580;7.756;2024-02-26T23:04:08;4.55;;;3.00;;
53271;SDS011;39160;48.580;7.756;2024-02-26T23:08:59;3.45;;;2.58;;
53271;SDS011;39160;48.580;7.756;2024-02-26T23:13:49;5.15;;;2.92;;
53271;SDS011;39160;48.580;7.756;2024-02-26T23:18:40;4.95;;;2.72;;
53271;SDS011;39160;48.580;7.756;2024-02-26T23:23:31;3.33;;;2.38;;
53271;SDS011;39160;48.580;7.756;2024-02-26T23:28:21;4.65;;;2.13;;
53271;SDS011;39160;48.580;7.756;2024-02-26T23:33:12;2.83;;;2.47;;
53271;SDS011;39160;48.580;7.756;2024-02-26T23:38:03;4.55;;;2.67;;
53271;SDS011;39160;48.580;7.756;2024-02-26T23:42:53;5.18;;;2.22;;
53271;SDS011;39160;48.580;7.756;2024-02-26T23:47:44;4.15;;;2.90;;
53271;SDS011;39160;48.580;7.756;2024-02-26T23:52:34;5.63;;;2.88;;
53271;SDS011;39160;48.580;7.756;2024-02-26T23:57:25;4.47;;;2.33;;
